createdAt,value
2023-04-04T00:00:43.544Z,2.20
2023-04-04T00:03:10.929Z,2.20
2023-04-04T00:05:38.180Z,2.20
2023-04-04T00:08:05.705Z,2.20
2023-04-04T00:10:32.897Z,2.20
2023-04-04T00:13:00.223Z,2.20
2023-04-04T00:15:27.472Z,2.20
2023-04-04T00:17:54.613Z,2.20
2023-04-04T00:20:21.796Z,2.10
2023-04-04T00:22:48.940Z,2.10
2023-04-04T00:25:16.156Z,2.10
2023-04-04T00:27:43.973Z,2.10
2023-04-04T00:30:12.485Z,2.10
2023-04-04T00:32:39.945Z,2.00
2023-04-04T00:35:07.721Z,2.00
2023-04-04T00:37:35.788Z,2.00
2023-04-04T00:40:04.260Z,2.00
2023-04-04T00:42:34.035Z,1.90
2023-04-04T00:45:01.340Z,1.90
2023-04-04T00:47:31.797Z,1.90
2023-04-04T00:49:58.976Z,1.90
2023-04-04T00:52:26.238Z,1.90
2023-04-04T00:54:56.214Z,1.90
2023-04-04T00:57:24.612Z,1.90
2023-04-04T00:59:52.046Z,1.80
2023-04-04T01:02:19.282Z,1.80
2023-04-04T01:04:47.306Z,1.80
2023-04-04T01:07:14.567Z,1.80
2023-04-04T01:09:42.164Z,1.80
2023-04-04T01:12:09.724Z,1.80
2023-04-04T01:14:37.084Z,1.80
2023-04-04T01:17:05.703Z,1.80
2023-04-04T01:19:39.120Z,1.80
2023-04-04T01:22:06.767Z,1.80
2023-04-04T01:24:36.038Z,1.80
2023-04-04T01:27:03.192Z,1.70
2023-04-04T01:29:32.936Z,1.70
2023-04-04T01:32:12.156Z,1.70
2023-04-04T01:35:29.801Z,1.70
2023-04-04T01:38:35.612Z,1.70
2023-04-04T01:41:10.127Z,1.70
2023-04-04T01:43:37.669Z,1.70
2023-04-04T01:46:05.399Z,1.70
2023-04-04T01:48:32.540Z,1.70
2023-04-04T01:51:02.028Z,1.70
2023-04-04T01:53:29.165Z,1.70
2023-04-04T01:55:56.716Z,1.70
2023-04-04T01:58:24.044Z,1.70
2023-04-04T02:00:51.175Z,1.70
2023-04-04T02:03:18.267Z,1.70
2023-04-04T02:05:45.400Z,1.70
2023-04-04T02:08:13.330Z,1.70
2023-04-04T02:10:40.546Z,1.60
2023-04-04T02:13:07.885Z,1.60
2023-04-04T02:15:35.636Z,1.60
2023-04-04T02:18:03.470Z,1.70
2023-04-04T02:20:30.739Z,1.70
2023-04-04T02:22:57.940Z,1.70
2023-04-04T02:25:25.687Z,1.70
2023-04-04T02:27:52.983Z,1.80
2023-04-04T02:30:20.151Z,1.80
2023-04-04T02:32:47.736Z,1.80
2023-04-04T02:35:16.939Z,1.80
2023-04-04T02:37:49.851Z,1.80
2023-04-04T02:40:17.166Z,1.80
2023-04-04T02:42:45.134Z,1.80
2023-04-04T02:45:14.483Z,1.80
2023-04-04T02:47:43.002Z,1.80
2023-04-04T02:50:11.544Z,1.80
2023-04-04T02:52:38.703Z,1.70
2023-04-04T02:55:07.734Z,1.70
2023-04-04T02:57:37.757Z,1.70
2023-04-04T03:00:05.677Z,1.70
2023-04-04T03:02:32.914Z,1.70
2023-04-04T03:05:00.078Z,1.60
2023-04-04T03:07:27.454Z,1.60
2023-04-04T03:09:54.787Z,1.50
2023-04-04T03:12:22.010Z,1.50
2023-04-04T03:14:49.624Z,1.50
2023-04-04T03:17:18.331Z,1.50
2023-04-04T03:19:45.847Z,1.50
2023-04-04T03:22:13.109Z,1.40
2023-04-04T03:24:40.345Z,1.40
2023-04-04T03:27:07.603Z,1.40
2023-04-04T03:29:34.729Z,1.40
2023-04-04T03:32:02.188Z,1.30
2023-04-04T03:34:29.595Z,1.30
2023-04-04T03:36:57.671Z,1.30
2023-04-04T03:39:29.706Z,1.20
2023-04-04T03:41:58.277Z,1.20
2023-04-04T03:44:25.500Z,1.10
2023-04-04T03:46:52.708Z,1.10
2023-04-04T03:49:19.891Z,1.10
2023-04-04T03:51:47.888Z,1.10
2023-04-04T03:54:15.118Z,1.10
2023-04-04T03:56:43.116Z,1.10
2023-04-04T03:59:10.338Z,1.10
2023-04-04T04:01:37.540Z,1.00
2023-04-04T04:04:04.656Z,1.00
2023-04-04T04:06:32.032Z,0.90
2023-04-04T04:08:59.160Z,0.90
2023-04-04T04:11:26.247Z,0.90
2023-04-04T04:13:53.497Z,0.90
2023-04-04T04:16:21.971Z,0.90
2023-04-04T04:18:49.836Z,0.90
2023-04-04T04:21:16.969Z,0.90
2023-04-04T04:23:44.079Z,0.90
2023-04-04T04:26:11.296Z,0.90
2023-04-04T04:28:38.467Z,0.90
2023-04-04T04:31:10.644Z,0.90
2023-04-04T04:33:37.837Z,0.90
2023-04-04T04:36:07.300Z,0.80
2023-04-04T04:38:34.656Z,0.80
2023-04-04T04:41:02.227Z,0.80
2023-04-04T04:43:29.404Z,0.80
2023-04-04T04:45:56.690Z,0.80
2023-04-04T04:48:23.884Z,0.80
2023-04-04T04:50:51.334Z,0.90
2023-04-04T04:53:18.455Z,0.90
2023-04-04T04:55:46.737Z,0.90
2023-04-04T04:58:16.945Z,0.90
2023-04-04T05:00:44.402Z,0.90
2023-04-04T05:03:11.596Z,0.90
2023-04-04T05:05:38.701Z,1.00
2023-04-04T05:08:06.156Z,1.00
2023-04-04T05:10:33.267Z,1.00
2023-04-04T05:13:00.336Z,1.00
2023-04-04T05:15:29.344Z,1.10
2023-04-04T05:17:56.527Z,1.10
2023-04-04T05:20:23.749Z,1.10
2023-04-04T05:22:51.634Z,1.20
2023-04-04T05:25:18.936Z,1.20
2023-04-04T05:27:49.456Z,1.20
2023-04-04T05:30:17.096Z,1.30
2023-04-04T05:32:47.411Z,1.30
2023-04-04T05:35:14.610Z,1.30
2023-04-04T05:37:41.831Z,1.40
2023-04-04T05:40:09.764Z,1.40
2023-04-04T05:42:37.339Z,1.50
2023-04-04T05:45:05.504Z,1.50
2023-04-04T05:47:33.554Z,1.60
2023-04-04T05:50:01.098Z,1.60
2023-04-04T05:52:31.228Z,1.70
2023-04-04T05:54:58.331Z,1.70
2023-04-04T05:57:25.466Z,1.70
2023-04-04T05:59:52.652Z,1.80
2023-04-04T06:02:19.872Z,1.90
2023-04-04T06:04:47.095Z,2.00
2023-04-04T06:07:14.273Z,2.10
2023-04-04T06:09:41.571Z,2.10
2023-04-04T06:12:11.708Z,2.20
2023-04-04T06:14:38.907Z,2.30
2023-04-04T06:17:06.822Z,2.40
2023-04-04T06:19:33.914Z,2.40
2023-04-04T06:22:01.165Z,2.50
2023-04-04T06:24:28.301Z,2.50
2023-04-04T06:26:55.395Z,2.60
2023-04-04T06:29:22.740Z,2.70
2023-04-04T06:31:50.251Z,2.80
2023-04-04T06:34:17.587Z,2.80
2023-04-04T06:36:44.762Z,2.80
2023-04-04T06:39:11.896Z,2.90
2023-04-04T06:41:39.005Z,3.00
2023-04-04T06:44:06.228Z,3.10
2023-04-04T06:46:33.443Z,3.20
2023-04-04T06:49:00.620Z,3.30
2023-04-04T06:51:28.630Z,3.30
2023-04-04T06:53:58.697Z,3.40
2023-04-04T06:56:27.074Z,3.50
2023-04-04T06:58:54.313Z,3.50
2023-04-04T07:01:21.685Z,3.60
2023-04-04T07:03:49.355Z,3.70
2023-04-04T07:06:16.565Z,3.80
2023-04-04T07:08:43.671Z,3.90
2023-04-04T07:11:10.847Z,3.90
2023-04-04T07:13:37.962Z,4.00
2023-04-04T07:16:05.530Z,4.10
2023-04-04T07:18:32.755Z,4.10
2023-04-04T07:20:59.854Z,4.10
2023-04-04T07:23:27.269Z,4.10
2023-04-04T07:25:54.343Z,4.20
2023-04-04T07:28:21.888Z,4.20
2023-04-04T07:30:48.996Z,4.30
2023-04-04T07:33:16.149Z,4.40
2023-04-04T07:35:43.378Z,4.50
2023-04-04T07:38:10.535Z,4.70
2023-04-04T07:40:38.070Z,4.80
2023-04-04T07:43:05.478Z,5.00
2023-04-04T07:45:32.537Z,5.10
2023-04-04T07:47:59.687Z,5.20
2023-04-04T07:50:27.293Z,5.20
2023-04-04T07:52:58.810Z,5.30
2023-04-04T07:55:26.222Z,5.40
2023-04-04T07:57:53.660Z,5.50
2023-04-04T08:00:22.158Z,5.70
2023-04-04T08:02:54.779Z,5.70
2023-04-04T08:05:22.225Z,5.80
2023-04-04T08:07:49.366Z,5.80
2023-04-04T08:10:17.851Z,6.00
2023-04-04T08:12:45.451Z,6.10
2023-04-04T08:15:12.738Z,6.20
2023-04-04T08:17:40.718Z,6.40
2023-04-04T08:20:08.228Z,6.60
2023-04-04T08:22:35.440Z,6.70
2023-04-04T08:25:03.223Z,6.70
2023-04-04T08:27:30.351Z,6.90
2023-04-04T08:29:57.400Z,7.10
2023-04-04T08:32:25.115Z,7.20
2023-04-04T08:34:52.342Z,7.10
2023-04-04T08:37:19.457Z,7.10
2023-04-04T08:39:46.552Z,7.20
2023-04-04T08:42:16.894Z,7.40
2023-04-04T08:44:45.835Z,7.50
2023-04-04T08:47:14.609Z,7.60
2023-04-04T08:49:45.174Z,7.70
2023-04-04T08:52:15.065Z,7.80
2023-04-04T08:54:43.696Z,7.90
2023-04-04T08:57:10.858Z,7.90
2023-04-04T08:59:38.153Z,8.00
2023-04-04T09:02:11.947Z,8.10
2023-04-04T09:04:44.585Z,7.90
2023-04-04T09:07:16.100Z,8.00
2023-04-04T09:09:47.852Z,8.30
2023-04-04T09:12:17.107Z,8.40
2023-04-04T09:14:46.289Z,8.60
2023-04-04T09:17:13.717Z,8.70
2023-04-04T09:19:40.769Z,9.00
2023-04-04T09:22:09.837Z,9.20
2023-04-04T09:24:42.884Z,9.40
2023-04-04T09:27:12.324Z,9.50
2023-04-04T09:29:41.319Z,9.20
2023-04-04T09:32:10.372Z,8.80
2023-04-04T09:34:38.047Z,8.40
2023-04-04T09:37:07.042Z,8.10
2023-04-04T09:39:35.013Z,8.30
2023-04-04T09:42:03.081Z,8.70
2023-04-04T09:44:33.463Z,9.00
2023-04-04T09:49:59.762Z,9.30
2023-04-04T09:52:27.565Z,9.40
2023-04-04T09:55:06.607Z,9.20
2023-04-04T09:57:39.474Z,9.30
2023-04-04T10:00:11.580Z,9.30
2023-04-04T10:02:47.027Z,9.50
2023-04-04T10:05:14.880Z,9.60
2023-04-04T10:07:44.125Z,9.70
2023-04-04T10:10:11.623Z,9.70
2023-04-04T10:12:39.014Z,9.60
2023-04-04T10:15:06.952Z,9.40
2023-04-04T10:17:40.185Z,9.40
2023-04-04T10:20:09.418Z,9.90
2023-04-04T10:22:40.263Z,10.00
2023-04-04T10:25:09.392Z,9.90
2023-04-04T10:27:38.728Z,10.20
2023-04-04T10:30:07.797Z,10.70
2023-04-04T10:33:06.584Z,11.10
2023-04-04T10:35:36.184Z,11.30
2023-04-04T10:38:05.340Z,11.10
2023-04-04T10:40:39.106Z,11.20
2023-04-04T10:43:07.425Z,11.50
2023-04-04T10:45:38.872Z,11.60
2023-04-04T10:48:10.541Z,11.70
2023-04-04T10:50:39.505Z,11.80
2023-04-04T10:55:37.475Z,11.80
2023-04-04T10:58:05.896Z,11.80
2023-04-04T11:00:33.422Z,11.60
2023-04-04T11:03:02.612Z,11.60
2023-04-04T11:05:37.443Z,11.70
2023-04-04T11:08:14.199Z,11.80
2023-04-04T11:10:49.483Z,11.90
2023-04-04T11:13:27.921Z,12.10
2023-04-04T11:16:08.007Z,12.40
2023-04-04T11:18:45.535Z,12.70
2023-04-04T11:21:18.561Z,12.50
2023-04-04T11:23:50.933Z,12.50
2023-04-04T11:26:28.383Z,12.50
2023-04-04T11:29:04.115Z,12.40
2023-04-04T11:31:47.889Z,12.40
2023-04-04T11:34:30.130Z,12.30
2023-04-04T11:36:58.055Z,12.30
2023-04-04T11:39:30.865Z,12.30
2023-04-04T11:42:10.732Z,12.50
2023-04-04T11:45:02.283Z,12.80
2023-04-04T11:47:30.789Z,12.80
2023-04-04T11:50:01.096Z,12.90
2023-04-04T11:52:38.420Z,13.00
2023-04-04T11:55:20.097Z,13.20
2023-04-04T11:57:48.241Z,13.40
2023-04-04T12:00:41.848Z,13.80
2023-04-04T12:03:12.305Z,13.80
2023-04-04T12:05:42.358Z,13.80
2023-04-04T12:08:12.503Z,13.70
2023-04-04T12:10:41.251Z,14.30
2023-04-04T12:13:10.120Z,14.70
2023-04-04T12:15:38.392Z,15.10
2023-04-04T12:18:09.965Z,15.20
2023-04-04T12:20:43.275Z,14.80
2023-04-04T12:23:10.560Z,14.60
2023-04-04T12:25:40.358Z,14.60
2023-04-04T12:28:08.259Z,14.50
2023-04-04T12:30:36.019Z,14.40
2023-04-04T12:33:03.478Z,14.20
2023-04-04T12:35:31.680Z,14.30
2023-04-04T12:38:13.805Z,14.30
2023-04-04T12:40:42.157Z,14.00
2023-04-04T12:43:09.743Z,14.00
2023-04-04T12:45:41.090Z,14.00
2023-04-04T12:48:18.102Z,13.90
2023-04-04T12:51:00.358Z,13.80
2023-04-04T12:53:30.210Z,13.70
2023-04-04T12:56:04.575Z,13.70
2023-04-04T12:58:34.251Z,13.80
2023-04-04T13:01:06.288Z,13.90
2023-04-04T13:03:35.023Z,13.90
2023-04-04T13:06:02.596Z,14.00
2023-04-04T13:08:29.902Z,14.00
2023-04-04T13:11:06.328Z,14.20
2023-04-04T13:13:41.017Z,14.30
2023-04-04T13:16:37.098Z,14.20
2023-04-04T13:19:04.953Z,14.30
2023-04-04T13:21:32.485Z,14.10
2023-04-04T13:24:02.070Z,14.30
2023-04-04T13:26:29.345Z,14.40
2023-04-04T13:28:56.480Z,14.50
2023-04-04T13:31:23.882Z,14.60
2023-04-04T13:33:51.089Z,14.70
2023-04-04T13:36:18.239Z,14.70
2023-04-04T13:38:45.474Z,14.60
2023-04-04T13:41:12.670Z,14.50
2023-04-04T13:43:48.060Z,14.60
2023-04-04T13:46:15.595Z,14.90
2023-04-04T13:48:42.809Z,14.90
2023-04-04T13:51:10.477Z,15.00
2023-04-04T13:53:37.570Z,14.90
2023-04-04T13:58:34.999Z,14.70
2023-04-04T14:01:06.163Z,14.70
2023-04-04T14:03:33.322Z,14.70
2023-04-04T14:06:06.295Z,14.80
2023-04-04T14:08:37.012Z,15.00
2023-04-04T14:11:04.282Z,15.00
2023-04-04T14:13:32.667Z,15.00
2023-04-04T14:15:59.841Z,15.00
2023-04-04T14:18:27.228Z,15.00
2023-04-04T14:20:54.404Z,15.00
2023-04-04T14:23:22.243Z,14.90
2023-04-04T14:25:50.859Z,15.00
2023-04-04T14:28:19.334Z,14.90
2023-04-04T14:30:46.374Z,15.00
2023-04-04T14:33:13.487Z,15.00
2023-04-04T14:35:41.323Z,15.20
2023-04-04T14:38:08.748Z,15.40
2023-04-04T14:40:35.797Z,15.30
2023-04-04T14:43:03.092Z,15.00
2023-04-04T14:45:33.190Z,14.90
2023-04-04T14:48:00.543Z,15.20
2023-04-04T14:50:27.775Z,15.20
2023-04-04T14:52:56.613Z,15.10
2023-04-04T14:55:24.027Z,14.80
2023-04-04T14:58:02.032Z,14.90
2023-04-04T15:00:31.130Z,14.90
2023-04-04T15:02:58.452Z,14.80
2023-04-04T15:05:26.682Z,14.80
2023-04-04T15:07:53.842Z,14.70
2023-04-04T15:10:21.471Z,14.40
2023-04-04T15:12:48.667Z,14.20
2023-04-04T15:15:16.667Z,13.90
2023-04-04T15:17:43.949Z,13.60
2023-04-04T15:20:11.884Z,13.20
2023-04-04T15:22:41.423Z,12.80
2023-04-04T15:25:09.852Z,12.50
2023-04-04T15:27:37.216Z,12.10
2023-04-04T15:30:05.760Z,11.80
2023-04-04T15:32:32.994Z,11.60
2023-04-04T15:35:02.199Z,11.40
2023-04-04T15:37:29.353Z,11.20
2023-04-04T15:39:56.432Z,11.00
2023-04-04T15:42:23.609Z,10.90
2023-04-04T15:44:50.882Z,10.80
2023-04-04T15:47:17.971Z,10.70
2023-04-04T15:49:45.064Z,10.70
2023-04-04T15:52:12.479Z,10.50
2023-04-04T15:54:39.935Z,10.50
2023-04-04T15:57:07.040Z,10.40
2023-04-04T15:59:34.391Z,10.30
2023-04-04T16:02:04.302Z,10.20
2023-04-04T16:04:31.375Z,10.10
2023-04-04T16:06:58.669Z,10.00
2023-04-04T16:09:25.964Z,10.00
2023-04-04T16:14:24.023Z,9.90
2023-04-04T16:16:51.287Z,9.80
2023-04-04T16:19:18.428Z,9.80
2023-04-04T16:21:45.905Z,9.80
2023-04-04T16:24:14.373Z,9.80
2023-04-04T16:26:47.306Z,9.80
2023-04-04T16:29:17.257Z,9.70
2023-04-04T16:31:44.738Z,9.60
2023-04-04T16:34:11.900Z,9.50
2023-04-04T16:36:39.155Z,9.40
2023-04-04T16:39:07.319Z,9.30
2023-04-04T16:41:34.574Z,9.20
2023-04-04T16:44:01.691Z,9.10
2023-04-04T16:46:28.904Z,9.00
2023-04-04T16:48:56.054Z,8.80
2023-04-04T16:51:23.214Z,8.70
2023-04-04T16:53:50.402Z,8.60
2023-04-04T16:56:17.607Z,8.50
2023-04-04T16:58:45.826Z,8.40
2023-04-04T17:01:15.300Z,8.30
2023-04-04T17:03:42.491Z,8.20
2023-04-04T17:06:09.912Z,8.10
2023-04-04T17:08:37.169Z,8.00
2023-04-04T17:11:04.344Z,7.90
2023-04-04T17:13:31.574Z,7.80
2023-04-04T17:15:58.781Z,7.70
2023-04-04T17:18:25.948Z,7.60
2023-04-04T17:20:53.250Z,7.40
2023-04-04T17:23:20.460Z,7.30
2023-04-04T17:25:47.762Z,7.20
2023-04-04T17:28:14.929Z,7.10
2023-04-04T17:30:42.598Z,7.00
2023-04-04T17:33:10.191Z,7.00
2023-04-04T17:35:37.353Z,6.80
2023-04-04T17:38:04.565Z,6.80
2023-04-04T17:40:31.828Z,6.70
2023-04-04T17:42:58.922Z,6.60
2023-04-04T17:45:27.657Z,6.50
2023-04-04T17:47:54.720Z,6.50
2023-04-04T17:50:23.459Z,6.40
2023-04-04T17:52:50.602Z,6.30
2023-04-04T17:55:17.996Z,6.30
2023-04-04T17:57:45.684Z,6.20
2023-04-04T18:00:14.480Z,6.20
2023-04-04T18:02:42.684Z,6.10
2023-04-04T18:05:10.773Z,6.00
2023-04-04T18:07:38.353Z,6.00
2023-04-04T18:10:07.445Z,5.90
2023-04-04T18:12:35.930Z,5.80
2023-04-04T18:15:03.978Z,5.70
2023-04-04T18:17:36.457Z,5.70
2023-04-04T18:20:08.069Z,5.60
2023-04-04T18:22:39.471Z,5.50
2023-04-04T18:25:08.417Z,5.40
2023-04-04T18:27:35.941Z,5.30
2023-04-04T18:30:03.829Z,5.20
2023-04-04T18:32:34.238Z,5.20
2023-04-04T18:35:02.254Z,5.10
2023-04-04T18:37:30.069Z,5.10
2023-04-04T18:39:57.570Z,5.00
2023-04-04T18:42:26.611Z,4.90
2023-04-04T18:44:54.676Z,4.90
2023-04-04T18:47:22.302Z,4.80
2023-04-04T18:49:52.337Z,4.70
2023-04-04T18:52:20.518Z,4.70
2023-04-04T18:54:50.089Z,4.60
2023-04-04T18:57:18.910Z,4.60
2023-04-04T18:59:47.264Z,4.50
2023-04-04T19:02:16.305Z,4.50
2023-04-04T19:04:47.074Z,4.40
2023-04-04T19:07:25.036Z,4.30
2023-04-04T19:09:52.957Z,4.30
2023-04-04T19:12:21.697Z,4.20
2023-04-04T19:14:49.345Z,4.10
2023-04-04T19:17:18.721Z,4.10
2023-04-04T19:19:47.614Z,4.00
2023-04-04T19:22:16.806Z,4.00
2023-04-04T19:24:44.833Z,4.00
2023-04-04T19:27:13.674Z,3.90
2023-04-04T19:29:41.745Z,3.80
2023-04-04T19:32:17.723Z,3.80
2023-04-04T19:34:47.420Z,3.70
2023-04-04T19:37:17.849Z,3.60
2023-04-04T19:39:45.587Z,3.60
2023-04-04T19:42:13.434Z,3.50
2023-04-04T19:44:41.584Z,3.40
2023-04-04T19:47:21.366Z,3.30
2023-04-04T19:49:53.403Z,3.30
2023-04-04T19:52:24.344Z,3.20
2023-04-04T19:54:52.467Z,3.10
2023-04-04T19:57:22.537Z,3.10
2023-04-04T20:00:13.905Z,3.10
2023-04-04T20:02:52.961Z,3.00
2023-04-04T20:05:54.670Z,3.00
2023-04-04T20:08:22.689Z,2.90
2023-04-04T20:10:54.804Z,2.90
2023-04-04T20:13:22.239Z,2.80
2023-04-04T20:18:32.146Z,2.70
2023-04-04T20:21:08.014Z,2.70
2023-04-04T20:23:56.212Z,2.60
2023-04-04T20:26:56.853Z,2.60
2023-04-04T20:29:33.345Z,2.50
2023-04-04T20:32:02.769Z,2.50
2023-04-04T20:34:43.890Z,2.40
2023-04-04T20:37:14.296Z,2.40
2023-04-04T20:39:46.770Z,2.30
2023-04-04T20:42:38.502Z,2.30
2023-04-04T20:45:26.415Z,2.20
2023-04-04T20:47:57.863Z,2.20
2023-04-04T20:50:27.139Z,2.10
2023-04-04T20:53:00.367Z,2.10
2023-04-04T20:55:31.427Z,2.00
2023-04-04T20:58:09.348Z,1.90
2023-04-04T21:00:42.693Z,1.90
2023-04-04T21:03:33.626Z,1.90
2023-04-04T21:06:14.313Z,1.90
2023-04-04T21:08:44.587Z,1.90
2023-04-04T21:11:13.973Z,1.80
2023-04-04T21:13:43.805Z,1.80
2023-04-04T21:16:14.336Z,1.70
2023-04-04T21:18:41.797Z,1.70
2023-04-04T21:21:11.926Z,1.70
2023-04-04T21:23:56.796Z,1.70
2023-04-04T21:26:42.424Z,1.60
2023-04-04T21:29:22.385Z,1.60
2023-04-04T21:31:55.642Z,1.50
2023-04-04T21:34:27.805Z,1.50
2023-04-04T21:36:59.716Z,1.50
2023-04-04T21:39:29.798Z,1.40
2023-04-04T21:42:07.893Z,1.40
2023-04-04T21:44:36.249Z,1.40
2023-04-04T21:47:03.379Z,1.30
2023-04-04T21:49:30.440Z,1.30
2023-04-04T21:51:57.625Z,1.30
2023-04-04T21:54:24.758Z,1.20
2023-04-04T21:56:51.858Z,1.20
2023-04-04T21:59:18.993Z,1.20
2023-04-04T22:01:46.234Z,1.10
2023-04-04T22:04:13.353Z,1.10
2023-04-04T22:06:40.756Z,1.10
2023-04-04T22:09:07.905Z,1.10
2023-04-04T22:11:38.857Z,1.10
2023-04-04T22:14:07.398Z,1.10
2023-04-04T22:16:39.712Z,1.10
2023-04-04T22:19:07.810Z,1.00
2023-04-04T22:21:37.043Z,1.00
2023-04-04T22:24:05.793Z,1.00
2023-04-04T22:26:33.675Z,1.00
2023-04-04T22:29:03.730Z,0.90
2023-04-04T22:31:34.264Z,0.90
2023-04-04T22:34:03.412Z,0.90
2023-04-04T22:36:31.241Z,0.90
2023-04-04T22:38:58.573Z,0.90
2023-04-04T22:41:28.137Z,0.90
2023-04-04T22:43:57.049Z,0.90
2023-04-04T22:46:25.872Z,0.80
2023-04-04T22:49:05.312Z,0.80
2023-04-04T22:51:43.066Z,0.80
2023-04-04T22:54:14.447Z,0.70
2023-04-04T22:56:42.016Z,0.70
2023-04-04T22:59:09.398Z,0.70
2023-04-04T23:01:36.657Z,0.70
2023-04-04T23:04:03.872Z,0.70
2023-04-04T23:06:31.472Z,0.70
2023-04-04T23:08:59.171Z,0.80
2023-04-04T23:11:27.492Z,0.80
2023-04-04T23:13:57.027Z,0.80
2023-04-04T23:16:26.379Z,0.80
2023-04-04T23:18:53.799Z,0.80
2023-04-04T23:21:22.040Z,0.90
2023-04-04T23:23:49.589Z,0.90
2023-04-04T23:26:16.729Z,0.90
2023-04-04T23:28:43.837Z,0.90
2023-04-04T23:31:11.033Z,0.90
2023-04-04T23:33:38.315Z,0.90
2023-04-04T23:36:05.956Z,0.90
2023-04-04T23:38:33.055Z,0.90
2023-04-04T23:41:00.120Z,0.90
2023-04-04T23:43:27.377Z,0.90
2023-04-04T23:45:54.608Z,0.80
2023-04-04T23:48:21.898Z,0.80
2023-04-04T23:50:50.150Z,0.90
2023-04-04T23:53:17.359Z,0.80
2023-04-04T23:55:44.462Z,0.80
2023-04-04T23:58:11.596Z,0.80
